Durango, CO

10:30 AM MST on January 20, 2017 (GMT -0700)
Edgemont Highlands | | Change Station
Active Advisory: Winter Storm Warning

Elev 7484 ft 37.31 °N, 107.79 °W | Updated 6 seconds ago

Overcast
Overcast
28.0 °F
Feels Like 28 °F
N
0.0
Wind Variable Wind from SSW
Gusts 0.0 mph

Today
High -- | Low -- °F
--% Chance of Precip.
Yesterday
High -- | Low -- °F
Precip. -- in
Pressure 29.70 in
Visibility 4.0 miles
Clouds Few 800 ft
Overcast 4500 ft
Windchill 28 °F
Dew Point 25 °F
Humidity 87%
Rainfall Not available.
Snow Depth Not available.
7:21 AM 5:22 PM
Last Quarter, 42% visible
SPECI KDRO 201708Z AUTO 24007KT 4SM -SN BR FEW008 OVC045 M02/M04 A2970 RMK AO2 P0000 T10221044
Pressure 29.70 in
Visibility 4.0 miles
Clouds Few 800 ft
Overcast 4500 ft
Windchill 28 °F
Dew Point 25 °F
Humidity 87%
Rainfall Not available.
Snow Depth Not available.
7:21 AM 5:22 PM
Last Quarter, 42% visible
SPECI KDRO 201708Z AUTO 24007KT 4SM -SN BR FEW008 OVC045 M02/M04 A2970 RMK AO2 P0000 T10221044

Get Your Daily Forecast Email!

Thanks for signing up!

Be on the lookout for a verification email in your inbox.

You'll start receiving the daily forecast at 8 AM.

×

10-Day Weather Forecast

Almanac

Astronomy

Jan. 20, 2017 Rise Set
Actual Time
Civil Twilight
Nautical Twilight
Astronomical Twilight
Moon
Length of Visible Light
Length of Day
Tomorrow will be .
, % of the Moon is Illuminated

Today's Extremes

State Highs State Lows

Community

WunderPhotos

Upload Photos

1,962,540 photos uploaded!

WunderBlog® & News

Nearby

Air Quality

  Air Quality AQ Index Pollutant
Not available.

Snow Depth

Station Depth Elevation

Earthquake Activity

City Distance Mag. Time & Date
Minimum magnitude displayed is 2.5.

Coastal Water Temperatures

Place Temperature

Stations

Nearby Weather Stations

Station Location Temp. Windchill Dew Point Humidity Wind Precip. Elev Updated Type
                   

Watches & Warnings

Winter Storm Warning
Issued: 7:02 AM MST Jan. 20, 2017 – National Weather Service

... Winter Storm Warning remains in effect until 5 PM MST
Saturday...

* locations include the cities of... Cortez... Dove Creek...
Mancos... Durango... Bayfield... Ignacio... Pagosa Springs.

* Timing... light to moderate snowfall will continue this morning
with a lull in the snowfall expected this afternoon. Snow then
picks back up tonight through Saturday morning.

* Snow accumulation... 5 to 10 inches with locally higher amounts
possible especially at higher elevations.

* Winds... southwest 5 to 15 mph with gusts up to 25 mph.

* Impacts... mountain roadways will become snow packed overnight
with winter driving conditions continuing through the weekend.
Visibilities will be reduced to under a half mile at times.

Precautionary/preparedness actions...

A Winter Storm Warning means significant amounts of snow are
expected or occurring. Strong winds and blowing snow are also
possible. This will make travel very hazardous or impossible.